createdAt,value
2022-11-25T00:01:07.284Z,12.77
2022-11-25T00:03:35.421Z,11.02
2022-11-25T00:06:13.736Z,5.38
2022-11-25T00:08:41.867Z,4.25
2022-11-25T00:11:09.371Z,3.53
2022-11-25T00:13:37.210Z,5.10
2022-11-25T00:16:09.487Z,4.85
2022-11-25T00:18:36.359Z,4.50
2022-11-25T00:21:11.529Z,3.70
2022-11-25T00:23:38.531Z,3.50
2022-11-25T00:26:13.924Z,6.28
2022-11-25T00:28:42.082Z,6.97
2022-11-25T00:31:13.901Z,8.13
2022-11-25T00:33:41.016Z,8.57
2022-11-25T00:36:15.123Z,6.93
2022-11-25T00:38:41.732Z,5.53
2022-11-25T00:41:30.023Z,5.22
2022-11-25T00:44:15.175Z,4.90
2022-11-25T00:46:42.323Z,4.43
2022-11-25T00:49:09.011Z,4.03
2022-11-25T00:51:35.595Z,3.67
2022-11-25T00:54:02.356Z,3.28
2022-11-25T00:56:30.392Z,4.00
2022-11-25T00:58:57.404Z,3.42
2022-11-25T01:01:24.655Z,2.70
2022-11-25T01:03:53.081Z,3.70
2022-11-25T01:06:20.049Z,3.30
2022-11-25T01:08:46.820Z,2.47
2022-11-25T01:11:16.647Z,3.00
2022-11-25T01:13:43.943Z,2.78
2022-11-25T01:16:16.224Z,2.80
2022-11-25T01:18:43.701Z,2.60
2022-11-25T01:21:16.059Z,2.40
2022-11-25T01:23:43.536Z,2.65
2022-11-25T01:26:16.851Z,3.33
2022-11-25T01:28:43.990Z,3.95
2022-11-25T01:31:14.437Z,3.03
2022-11-25T01:33:41.323Z,3.40
2022-11-25T01:36:11.261Z,2.97
2022-11-25T01:38:38.356Z,3.33
2022-11-25T01:41:06.991Z,3.35
2022-11-25T01:43:33.790Z,2.85
2022-11-25T01:46:21.121Z,3.00
2022-11-25T01:49:03.603Z,2.67
2022-11-25T01:51:40.722Z,2.92
2022-11-25T01:54:11.731Z,2.50
2022-11-25T01:56:46.734Z,3.45
2022-11-25T01:59:13.974Z,5.00
2022-11-25T02:01:40.593Z,5.60
2022-11-25T02:04:11.061Z,6.57
2022-11-25T02:06:53.462Z,4.95
2022-11-25T02:09:21.983Z,6.75
2022-11-25T02:11:49.435Z,8.30
2022-11-25T02:14:18.099Z,10.52
2022-11-25T02:16:44.746Z,12.02
2022-11-25T02:19:24.603Z,8.05
2022-11-25T02:22:00.051Z,5.55
2022-11-25T02:24:55.959Z,2.80
2022-11-25T02:27:22.581Z,3.53
2022-11-25T02:29:50.526Z,4.40
2022-11-25T02:32:21.864Z,8.05
2022-11-25T02:34:49.310Z,3.67
2022-11-25T02:37:19.124Z,2.95
2022-11-25T02:39:47.731Z,4.80
2022-11-25T02:42:15.844Z,3.58
2022-11-25T02:44:42.397Z,3.35
2022-11-25T02:47:09.204Z,3.65
2022-11-25T02:49:35.826Z,3.63
2022-11-25T02:52:02.626Z,2.70
2022-11-25T02:54:29.208Z,3.22
2022-11-25T02:56:55.735Z,2.83
2022-11-25T02:59:22.314Z,2.88
2022-11-25T03:01:48.982Z,3.13
2022-11-25T03:04:15.594Z,2.85
2022-11-25T03:06:42.203Z,2.63
2022-11-25T03:09:08.809Z,3.00
2022-11-25T03:12:07.722Z,2.92
2022-11-25T03:14:34.694Z,3.55
2022-11-25T03:17:01.490Z,3.40
2022-11-25T03:19:28.115Z,2.85
2022-11-25T03:21:54.723Z,3.22
2022-11-25T03:24:21.327Z,2.53
2022-11-25T03:26:47.813Z,2.53
2022-11-25T03:29:14.388Z,2.83
2022-11-25T03:31:41.001Z,2.05
2022-11-25T03:34:07.578Z,2.47
2022-11-25T03:36:34.254Z,2.80
2022-11-25T03:39:01.147Z,2.78
2022-11-25T03:41:27.718Z,3.35
2022-11-25T03:43:54.438Z,2.40
2022-11-25T03:46:21.112Z,2.92
2022-11-25T03:48:47.765Z,2.95
2022-11-25T03:51:14.730Z,2.53
2022-11-25T03:53:41.316Z,2.53
2022-11-25T03:56:08.047Z,2.50
2022-11-25T03:58:34.679Z,2.22
2022-11-25T04:01:02.262Z,2.03
2022-11-25T04:03:29.709Z,2.17
2022-11-25T04:05:56.731Z,2.70
2022-11-25T04:08:24.067Z,2.60
2022-11-25T04:10:51.375Z,2.65
2022-11-25T04:13:18.277Z,3.42
2022-11-25T04:15:49.662Z,1.88
2022-11-25T04:18:17.742Z,4.43
2022-11-25T04:20:44.577Z,2.90
2022-11-25T04:23:12.508Z,2.72
2022-11-25T04:25:39.505Z,2.40
2022-11-25T04:28:06.424Z,2.10
2022-11-25T04:30:33.506Z,2.55
2022-11-25T04:33:01.882Z,2.33
2022-11-25T04:35:28.710Z,2.22
2022-11-25T04:37:55.327Z,2.55
2022-11-25T04:40:21.915Z,2.20
2022-11-25T04:42:48.566Z,2.38
2022-11-25T04:45:25.005Z,2.20
2022-11-25T04:47:52.080Z,2.60
2022-11-25T04:50:22.045Z,1.70
2022-11-25T04:52:48.653Z,3.05
2022-11-25T04:55:15.714Z,1.90
2022-11-25T04:57:42.308Z,2.17
2022-11-25T05:00:10.343Z,1.90
2022-11-25T05:02:37.222Z,2.38
2022-11-25T05:05:04.500Z,2.53
2022-11-25T05:07:31.139Z,2.42
2022-11-25T05:09:57.816Z,2.53
2022-11-25T05:12:28.419Z,1.80
2022-11-25T05:14:55.547Z,2.38
2022-11-25T05:17:26.478Z,2.35
2022-11-25T05:19:53.252Z,2.50
2022-11-25T05:22:31.677Z,7.47
2022-11-25T05:24:59.122Z,6.65
2022-11-25T05:27:27.034Z,11.23
2022-11-25T05:29:56.128Z,9.52
2022-11-25T05:32:23.499Z,8.70
2022-11-25T05:34:50.270Z,5.55
2022-11-25T05:37:21.154Z,5.25
2022-11-25T05:39:50.619Z,3.40
2022-11-25T05:42:17.240Z,3.03
2022-11-25T05:44:43.790Z,3.08
2022-11-25T05:47:10.416Z,3.35
2022-11-25T05:49:37.016Z,3.25
2022-11-25T05:52:03.612Z,3.17
2022-11-25T05:54:30.261Z,3.22
2022-11-25T05:56:56.879Z,2.50
2022-11-25T05:59:23.440Z,2.75
2022-11-25T06:01:53.195Z,2.88
2022-11-25T06:04:19.857Z,3.40
2022-11-25T06:06:46.407Z,3.15
2022-11-25T06:09:12.972Z,3.33
2022-11-25T06:11:39.607Z,2.42
2022-11-25T06:14:06.190Z,3.00
2022-11-25T06:16:32.794Z,2.70
2022-11-25T06:18:59.847Z,3.10
2022-11-25T06:21:26.406Z,3.47
2022-11-25T06:23:52.943Z,2.08
2022-11-25T06:26:22.365Z,2.63
2022-11-25T06:28:52.538Z,3.10
2022-11-25T06:31:21.828Z,2.67
2022-11-25T06:33:50.736Z,2.65
2022-11-25T06:36:18.557Z,3.50
2022-11-25T06:38:53.675Z,3.55
2022-11-25T06:41:21.728Z,2.90
2022-11-25T06:43:48.287Z,3.20
2022-11-25T06:46:21.303Z,3.38
2022-11-25T06:48:50.887Z,2.92
2022-11-25T06:51:17.425Z,3.22
2022-11-25T06:53:44.592Z,3.83
2022-11-25T06:56:21.226Z,3.42
2022-11-25T06:58:49.048Z,2.92
2022-11-25T07:01:21.811Z,3.08
2022-11-25T07:03:51.432Z,3.63
2022-11-25T07:06:18.965Z,2.85
2022-11-25T07:08:46.569Z,3.63
2022-11-25T07:11:19.078Z,4.55
2022-11-25T07:13:47.013Z,4.45
2022-11-25T07:16:14.770Z,4.35
2022-11-25T07:18:42.295Z,7.25
2022-11-25T07:21:10.763Z,9.32
2022-11-25T07:23:38.336Z,8.80
2022-11-25T07:26:17.814Z,6.97
2022-11-25T07:28:44.941Z,4.63
2022-11-25T07:31:27.068Z,5.85
2022-11-25T07:33:58.075Z,4.50
2022-11-25T07:36:25.894Z,3.63
2022-11-25T07:38:52.499Z,4.78
2022-11-25T07:41:24.357Z,3.85
2022-11-25T07:43:57.081Z,5.20
2022-11-25T07:46:38.433Z,4.18
2022-11-25T07:49:07.597Z,4.00
2022-11-25T07:51:43.361Z,3.72
2022-11-25T07:54:13.179Z,4.40
2022-11-25T07:56:42.516Z,5.32
2022-11-25T07:59:12.979Z,5.63
2022-11-25T08:01:40.769Z,3.60
2022-11-25T08:04:08.950Z,4.30
2022-11-25T08:06:39.586Z,3.60
2022-11-25T08:09:06.881Z,4.03
2022-11-25T08:11:33.562Z,4.03
2022-11-25T08:14:01.695Z,3.58
2022-11-25T08:16:31.384Z,3.00
2022-11-25T08:19:00.068Z,4.13
2022-11-25T08:21:27.145Z,3.10
2022-11-25T08:23:54.817Z,3.55
2022-11-25T08:26:33.938Z,3.42
2022-11-25T08:29:01.817Z,3.35
2022-11-25T08:31:34.093Z,3.58
2022-11-25T08:34:01.550Z,4.07
2022-11-25T08:36:29.755Z,4.35
2022-11-25T08:38:59.089Z,3.80
2022-11-25T08:41:31.622Z,3.83
2022-11-25T08:44:00.337Z,4.10
2022-11-25T08:46:29.893Z,3.83
2022-11-25T08:48:57.037Z,3.53
2022-11-25T08:51:27.785Z,4.05
2022-11-25T08:53:54.673Z,3.55
2022-11-25T08:56:25.941Z,4.53
2022-11-25T08:58:56.767Z,3.90
2022-11-25T09:01:25.622Z,3.77
2022-11-25T09:03:55.461Z,3.97
2022-11-25T09:06:27.612Z,3.70
2022-11-25T09:08:59.560Z,4.05
2022-11-25T09:11:27.544Z,3.42
2022-11-25T09:13:54.413Z,3.17
2022-11-25T09:16:21.454Z,3.28
2022-11-25T09:18:54.023Z,3.42
2022-11-25T09:21:24.948Z,3.60
2022-11-25T09:23:53.036Z,3.30
2022-11-25T09:26:25.592Z,4.00
2022-11-25T09:28:52.806Z,4.38
2022-11-25T09:31:20.447Z,3.53
2022-11-25T09:33:47.857Z,4.03
2022-11-25T09:36:16.598Z,3.63
2022-11-25T09:38:45.939Z,3.65
2022-11-25T09:41:57.491Z,3.50
2022-11-25T09:47:57.307Z,4.65
2022-11-25T09:50:45.137Z,3.65
2022-11-25T09:53:42.391Z,3.58
2022-11-25T09:56:34.183Z,4.95
2022-11-25T09:59:10.657Z,3.38
2022-11-25T10:01:47.746Z,3.05
2022-11-25T10:04:21.089Z,4.60
2022-11-25T10:06:57.054Z,3.60
2022-11-25T10:09:28.889Z,3.85
2022-11-25T10:11:55.451Z,2.60
2022-11-25T10:14:30.072Z,3.38
2022-11-25T10:17:17.810Z,3.40
2022-11-25T10:20:06.598Z,2.65
2022-11-25T10:22:41.523Z,3.47
2022-11-25T10:25:18.342Z,5.03
2022-11-25T10:28:08.015Z,2.90
2022-11-25T10:30:42.292Z,3.20
2022-11-25T10:33:11.776Z,3.00
2022-11-25T10:35:43.572Z,3.95
2022-11-25T10:38:24.668Z,4.47
2022-11-25T10:40:52.754Z,4.28
2022-11-25T10:43:19.399Z,3.53
2022-11-25T10:46:11.478Z,3.33
2022-11-25T10:48:44.174Z,2.72
2022-11-25T10:51:49.228Z,2.70
2022-11-25T10:54:39.103Z,3.00
2022-11-25T10:57:19.730Z,2.92
2022-11-25T11:00:00.937Z,2.65
2022-11-25T11:05:25.320Z,3.30
2022-11-25T11:08:19.191Z,2.70
2022-11-25T11:10:50.519Z,2.50
2022-11-25T11:13:19.440Z,2.70
2022-11-25T11:15:48.058Z,2.70
2022-11-25T11:18:39.877Z,2.70
2022-11-25T11:21:20.151Z,2.28
2022-11-25T11:23:52.884Z,3.07
2022-11-25T11:26:32.542Z,2.78
2022-11-25T11:29:14.487Z,2.28
2022-11-25T11:31:48.575Z,3.50
2022-11-25T11:34:20.856Z,3.13
2022-11-25T11:37:24.703Z,3.15
2022-11-25T11:40:27.870Z,2.75
2022-11-25T11:42:57.340Z,2.75
2022-11-25T11:45:23.787Z,3.13
2022-11-25T11:47:55.971Z,3.30
2022-11-25T11:50:31.775Z,3.53
2022-11-25T11:53:18.835Z,3.00
2022-11-25T11:56:32.905Z,2.58
2022-11-25T11:59:09.317Z,2.90
2022-11-25T12:01:47.616Z,2.67
2022-11-25T12:04:20.380Z,2.90
2022-11-25T12:07:00.558Z,3.10
2022-11-25T12:09:30.215Z,2.92
2022-11-25T12:12:05.039Z,2.30
2022-11-25T12:14:40.279Z,2.50
2022-11-25T12:17:15.019Z,2.63
2022-11-25T12:20:03.719Z,3.58
2022-11-25T12:22:40.848Z,3.38
2022-11-25T12:25:23.952Z,2.78
2022-11-25T12:28:00.930Z,2.47
2022-11-25T12:30:38.570Z,3.33
2022-11-25T12:33:20.659Z,2.67
2022-11-25T12:36:03.930Z,2.67
2022-11-25T12:38:43.099Z,2.78
2022-11-25T12:41:21.487Z,2.33
2022-11-25T12:44:22.638Z,3.20
2022-11-25T12:46:52.217Z,3.05
2022-11-25T12:49:25.949Z,2.70
2022-11-25T12:52:07.858Z,2.47
2022-11-25T12:55:03.023Z,2.72
2022-11-25T12:57:49.402Z,3.85
2022-11-25T13:00:41.928Z,3.08
2022-11-25T13:03:30.836Z,2.83
2022-11-25T13:06:20.004Z,2.40
2022-11-25T13:09:19.534Z,2.70
2022-11-25T13:12:04.395Z,2.53
2022-11-25T13:14:56.027Z,3.25
2022-11-25T13:17:24.222Z,2.20
2022-11-25T13:20:29.177Z,3.58
2022-11-25T13:23:04.896Z,2.63
2022-11-25T13:25:37.196Z,3.42
2022-11-25T13:28:05.616Z,2.92
2022-11-25T13:30:32.103Z,2.97
2022-11-25T13:33:18.556Z,2.75
2022-11-25T13:35:46.128Z,2.85
2022-11-25T13:38:34.739Z,3.30
2022-11-25T13:41:21.245Z,2.70
2022-11-25T13:43:54.379Z,3.72
2022-11-25T13:46:42.688Z,3.92
2022-11-25T13:49:31.722Z,2.83
2022-11-25T13:52:21.891Z,3.75
2022-11-25T13:54:53.688Z,2.53
2022-11-25T13:57:37.311Z,2.70
2022-11-25T14:00:04.661Z,2.22
2022-11-25T14:02:38.268Z,2.40
2022-11-25T14:05:20.187Z,2.55
2022-11-25T14:08:08.725Z,3.00
2022-11-25T14:11:20.229Z,2.83
2022-11-25T14:16:19.279Z,3.00
2022-11-25T14:19:50.206Z,2.83
2022-11-25T14:22:09.432Z,3.35
2022-11-25T14:24:46.116Z,2.78
2022-11-25T14:27:35.671Z,2.40
2022-11-25T14:30:07.950Z,2.92
2022-11-25T14:32:58.392Z,3.08
2022-11-25T14:35:45.540Z,3.10
2022-11-25T14:38:35.648Z,3.97
2022-11-25T14:41:25.794Z,3.40
2022-11-25T14:43:58.405Z,2.50
2022-11-25T14:46:25.721Z,2.70
2022-11-25T14:49:02.879Z,2.70
2022-11-25T14:51:37.906Z,3.13
2022-11-25T14:54:08.962Z,2.85
2022-11-25T14:56:37.568Z,3.10
2022-11-25T14:59:07.876Z,3.10
2022-11-25T15:01:36.658Z,3.28
2022-11-25T15:04:12.834Z,2.75
2022-11-25T15:06:45.389Z,2.90
2022-11-25T15:09:21.562Z,3.00
2022-11-25T15:11:51.160Z,2.78
2022-11-25T15:14:36.913Z,2.70
2022-11-25T15:17:33.287Z,3.25
2022-11-25T15:20:03.651Z,2.15
2022-11-25T15:22:30.412Z,2.88
2022-11-25T15:25:12.979Z,3.03
2022-11-25T15:27:51.332Z,4.80
2022-11-25T15:30:32.119Z,2.70
2022-11-25T15:32:59.174Z,3.00
2022-11-25T15:35:27.483Z,2.92
2022-11-25T15:37:56.959Z,2.97
2022-11-25T15:40:41.983Z,3.45
2022-11-25T15:43:25.543Z,3.67
2022-11-25T15:45:57.534Z,3.47
2022-11-25T15:48:29.500Z,3.30
2022-11-25T15:51:20.581Z,2.40
2022-11-25T15:53:56.188Z,2.70
2022-11-25T15:56:26.577Z,3.28
2022-11-25T15:58:57.315Z,2.67
2022-11-25T16:01:28.768Z,2.67
2022-11-25T16:04:11.120Z,2.42
2022-11-25T16:06:53.245Z,3.13
2022-11-25T16:09:22.149Z,2.92
2022-11-25T16:11:48.768Z,2.72
2022-11-25T16:14:29.126Z,2.67
2022-11-25T16:17:01.512Z,2.20
2022-11-25T16:19:38.552Z,3.22
2022-11-25T16:22:05.628Z,2.67
2022-11-25T16:24:53.032Z,4.00
2022-11-25T16:27:25.809Z,4.30
2022-11-25T16:30:04.727Z,4.18
2022-11-25T16:32:32.774Z,5.20
2022-11-25T16:35:21.168Z,4.13
2022-11-25T16:37:49.387Z,4.45
2022-11-25T16:40:17.878Z,4.90
2022-11-25T16:42:48.417Z,4.57
2022-11-25T16:45:21.156Z,4.95
2022-11-25T16:47:47.809Z,7.68
2022-11-25T16:50:16.179Z,8.82
2022-11-25T16:52:43.308Z,9.07
2022-11-25T16:55:10.098Z,7.93
2022-11-25T16:57:38.006Z,6.05
2022-11-25T17:00:08.667Z,8.20
2022-11-25T17:02:35.685Z,6.68
2022-11-25T17:05:20.549Z,8.00
2022-11-25T17:07:47.975Z,8.55
2022-11-25T17:10:14.676Z,4.40
2022-11-25T17:12:42.368Z,4.70
2022-11-25T17:15:18.218Z,5.70
2022-11-25T17:17:47.936Z,6.78
2022-11-25T17:20:21.615Z,5.47
2022-11-25T17:22:49.151Z,5.60
2022-11-25T17:25:15.831Z,5.68
2022-11-25T17:27:42.928Z,6.47
2022-11-25T17:30:27.963Z,6.28
2022-11-25T17:33:02.633Z,4.70
2022-11-25T17:35:29.470Z,5.88
2022-11-25T17:37:59.432Z,5.50
2022-11-25T17:40:26.315Z,7.07
2022-11-25T17:42:53.365Z,6.50
2022-11-25T17:45:21.239Z,8.80
2022-11-25T17:47:47.874Z,8.48
2022-11-25T17:50:17.812Z,10.55
2022-11-25T17:52:44.414Z,12.38
2022-11-25T17:55:11.106Z,10.48
2022-11-25T17:57:38.180Z,9.77
2022-11-25T18:00:07.332Z,7.75
2022-11-25T18:02:33.957Z,6.57
2022-11-25T18:05:01.321Z,6.63
2022-11-25T18:07:28.089Z,8.25
2022-11-25T18:09:54.699Z,7.75
2022-11-25T18:12:30.803Z,4.85
2022-11-25T18:14:57.693Z,5.15
2022-11-25T18:17:24.786Z,4.55
2022-11-25T18:19:54.856Z,4.95
2022-11-25T18:22:23.598Z,4.80
2022-11-25T18:24:50.270Z,5.47
2022-11-25T18:27:19.892Z,5.15
2022-11-25T18:29:46.708Z,5.43
2022-11-25T18:32:13.338Z,6.05
2022-11-25T18:34:40.256Z,6.30
2022-11-25T18:37:06.947Z,5.57
2022-11-25T18:39:33.541Z,4.55
2022-11-25T18:42:00.465Z,5.80
2022-11-25T18:44:31.868Z,4.60
2022-11-25T18:46:58.479Z,3.83
2022-11-25T18:49:25.100Z,4.13
2022-11-25T18:51:51.754Z,4.57
2022-11-25T18:54:18.387Z,4.65
2022-11-25T18:56:49.311Z,3.67
2022-11-25T18:59:21.297Z,4.50
2022-11-25T19:01:50.034Z,4.20
2022-11-25T19:04:17.093Z,3.53
2022-11-25T19:06:44.195Z,3.58
2022-11-25T19:09:11.284Z,4.72
2022-11-25T19:11:46.158Z,8.27
2022-11-25T19:14:32.140Z,5.63
2022-11-25T19:17:18.256Z,5.20
2022-11-25T19:19:46.302Z,4.13
2022-11-25T19:22:15.752Z,6.68
2022-11-25T19:24:42.742Z,6.45
2022-11-25T19:27:18.107Z,5.60
2022-11-25T19:29:45.619Z,5.57
2022-11-25T19:32:29.554Z,4.75
2022-11-25T19:35:08.397Z,4.90
2022-11-25T19:37:35.557Z,6.45
2022-11-25T19:40:03.086Z,7.28
2022-11-25T19:42:31.755Z,6.40
2022-11-25T19:44:58.496Z,6.65
2022-11-25T19:47:27.085Z,5.63
2022-11-25T19:49:58.193Z,5.53
2022-11-25T19:52:35.760Z,5.95
2022-11-25T19:55:16.069Z,5.85
2022-11-25T19:57:42.878Z,6.50
2022-11-25T20:00:11.157Z,8.52
2022-11-25T20:02:38.359Z,7.35
2022-11-25T20:05:06.837Z,7.30
2022-11-25T20:07:34.128Z,7.50
2022-11-25T20:10:16.361Z,7.45
2022-11-25T20:12:43.017Z,7.85
2022-11-25T20:15:10.408Z,6.47
2022-11-25T20:17:39.228Z,6.30
2022-11-25T20:20:11.940Z,6.00
2022-11-25T20:22:42.758Z,8.00
2022-11-25T20:25:14.709Z,7.93
2022-11-25T20:27:41.530Z,7.28
2022-11-25T20:30:34.419Z,11.15
2022-11-25T20:33:01.057Z,12.00
2022-11-25T20:35:28.805Z,22.73
2022-11-25T20:37:57.898Z,12.65
2022-11-25T20:40:46.488Z,13.02
2022-11-25T20:43:43.643Z,12.10
2022-11-25T20:46:28.669Z,13.70
2022-11-25T20:48:57.397Z,14.52
2022-11-25T20:51:24.932Z,14.55
2022-11-25T20:54:01.385Z,13.35
2022-11-25T20:56:28.955Z,13.57
2022-11-25T20:58:55.856Z,14.68
2022-11-25T21:01:22.745Z,11.00
2022-11-25T21:03:50.596Z,9.65
2022-11-25T21:06:22.329Z,7.97
2022-11-25T21:08:52.364Z,6.82
2022-11-25T21:11:20.528Z,6.55
2022-11-25T21:13:48.025Z,5.88
2022-11-25T21:16:14.964Z,6.38
2022-11-25T21:18:41.862Z,6.53
2022-11-25T21:21:18.316Z,5.78
2022-11-25T21:23:47.374Z,6.30
2022-11-25T21:26:20.196Z,6.95
2022-11-25T21:28:49.005Z,6.60
2022-11-25T21:31:21.946Z,8.50
2022-11-25T21:33:49.970Z,7.03
2022-11-25T21:36:29.443Z,6.38
2022-11-25T21:39:06.350Z,5.40
2022-11-25T21:41:34.431Z,5.22
2022-11-25T21:44:04.308Z,4.88
2022-11-25T21:46:30.922Z,5.35
2022-11-25T21:49:11.719Z,5.15
2022-11-25T21:51:38.291Z,4.75
2022-11-25T21:54:05.112Z,3.72
2022-11-25T21:56:34.527Z,3.63
2022-11-25T21:59:03.046Z,4.30
2022-11-25T22:01:30.172Z,4.85
2022-11-25T22:03:57.137Z,4.80
2022-11-25T22:06:29.550Z,4.18
2022-11-25T22:08:57.253Z,3.60
2022-11-25T22:11:37.659Z,3.63
2022-11-25T22:14:37.726Z,4.07
2022-11-25T22:17:12.799Z,3.80
2022-11-25T22:19:39.564Z,3.78
2022-11-25T22:22:12.678Z,3.90
2022-11-25T22:24:39.818Z,3.60
2022-11-25T22:27:10.809Z,3.40
2022-11-25T22:29:37.453Z,3.58
2022-11-25T22:32:08.178Z,4.63
2022-11-25T22:34:36.755Z,3.90
2022-11-25T22:37:03.528Z,3.85
2022-11-25T22:39:30.124Z,4.78
2022-11-25T22:42:04.016Z,4.00
2022-11-25T22:44:42.903Z,3.63
2022-11-25T22:47:22.554Z,4.32
2022-11-25T22:49:49.762Z,3.53
2022-11-25T22:52:35.566Z,2.97
2022-11-25T22:55:14.322Z,3.63
2022-11-25T22:57:41.184Z,3.70
2022-11-25T23:00:10.909Z,4.63
2022-11-25T23:02:37.793Z,4.60
2022-11-25T23:05:39.134Z,5.72
2022-11-25T23:08:16.280Z,5.30
2022-11-25T23:10:43.847Z,8.15
2022-11-25T23:13:10.874Z,7.22
2022-11-25T23:15:38.079Z,6.65
2022-11-25T23:18:07.626Z,6.38
2022-11-25T23:20:37.390Z,7.18
2022-11-25T23:23:27.121Z,7.82
2022-11-25T23:25:54.890Z,7.70
2022-11-25T23:28:21.829Z,7.80
2022-11-25T23:30:56.259Z,7.90
2022-11-25T23:33:32.091Z,7.63
2022-11-25T23:36:02.470Z,7.82
2022-11-25T23:38:31.529Z,8.38
2022-11-25T23:40:58.138Z,7.15
2022-11-25T23:43:24.747Z,7.38
2022-11-25T23:45:53.887Z,7.45
2022-11-25T23:48:23.712Z,7.47
2022-11-25T23:50:51.825Z,8.20
2022-11-25T23:53:25.061Z,10.27
2022-11-25T23:55:52.049Z,10.57
2022-11-25T23:58:21.363Z,10.10
